KLRD/LRD METAR and TAF weather

Enter ICAO airport designator
Station Type Date Time Source
KLRD METAR 2024/06/16 08:56 UTC NOAA

KLRD 160856Z AUTO 14011KT 10SM CLR 27/22 A2982 RMK AO2 SLP094 T02720217 58006


Station Type Date Time Source
KLRD Decoded METAR 2024/06/16 08:56 UTC NOAA

Laredo, Laredo International Airport, TX, United States (KLRD) 27-32-37N 099-27-41W
Jun 16, 2024 - 04:56 AM EDT / 2024.06.16 0856 UTC
Wind: from the SE (140 degrees) at 13 MPH (11 KT):0
Visibility: 10 mile(s):0
Sky conditions: clear
Temperature: 81.0 F (27.2 C)
Dew Point: 71.1 F (21.7 C)
Relative Humidity: 71%
Pressure (altimeter): 29.82 in. Hg (1009 hPa)
Pressure tendency: 0.02 inches (0.6 hPa) lower than three hours ago
ob: KLRD 160856Z AUTO 14011KT 10SM CLR 27/22 A2982 RMK AO2 SLP094 T02720217 58006
cycle: 9

Station Type Date Time Source
KLRD TAF 2024/06/16 06:22 UTC NOAA